Time;durP1;ratioP1;P1;durP2;ratioP2;P2;SDS_P1;SDS_P2;PMS_P1;PMS_P2;Temp;Humidity;BMP_temperature;BMP_pressure;BME280_temperature;BME280_humidity;BME280_pressure;Samples;Min_cycle;Max_cycle;Signal;HPM_P1;HPM_P2
2024/03/17 00:02:23;;;;;;;13.20;3.10;;;;;;;3.93;80.57;101169.86;103020;1303;25586;-61
2024/03/17 00:04:48;;;;;;;17.70;3.20;;;;;;;3.96;80.50;101173.52;103032;1300;22699;-62
2024/03/17 00:07:14;;;;;;;10.90;2.40;;;;;;;3.98;80.36;101179.17;103266;1316;23777;-62
2024/03/17 00:09:41;;;;;;;12.20;2.30;;;;;;;3.97;80.40;101184.79;102978;1311;22584;-63
2024/03/17 00:12:07;;;;;;;16.00;3.10;;;;;;;3.95;80.29;101185.77;103145;1306;22691;-63
2024/03/17 00:14:34;;;;;;;8.20;2.30;;;;;;;3.89;80.26;101189.07;103035;1310;25524;-61
2024/03/17 00:17:01;;;;;;;9.80;2.10;;;;;;;3.81;80.24;101192.13;103029;1308;22576;-63
2024/03/17 00:19:26;;;;;;;8.80;2.40;;;;;;;3.73;80.68;101191.64;103179;1310;25614;-62
2024/03/17 00:21:52;;;;;;;17.30;2.90;;;;;;;3.68;80.65;101193.21;103201;1303;23967;-62
2024/03/17 00:24:19;;;;;;;10.60;2.50;;;;;;;3.71;80.66;101192.25;103213;1294;22601;-63
2024/03/17 00:26:49;;;;;;;9.90;1.90;;;;;;;3.76;80.45;101194.24;103109;1316;22989;-63
2024/03/17 00:29:15;;;;;;;12.90;2.50;;;;;;;3.84;80.14;101191.00;103564;1316;22688;-64
2024/03/17 00:31:41;;;;;;;9.80;2.10;;;;;;;3.90;79.79;101189.94;103049;1299;25296;-62
2024/03/17 00:34:07;;;;;;;9.60;2.30;;;;;;;3.98;79.61;101190.10;103038;1300;23946;-61
2024/03/17 00:36:33;;;;;;;12.90;3.00;;;;;;;4.05;79.31;101191.08;103234;1316;22566;-62
2024/03/17 00:38:58;;;;;;;12.80;2.90;;;;;;;4.09;79.37;101191.69;103029;1313;25374;-61
2024/03/17 00:41:24;;;;;;;10.80;2.30;;;;;;;4.13;78.60;101193.13;103053;1316;22754;-62
2024/03/17 00:43:52;;;;;;;13.10;2.50;;;;;;;4.18;78.61;101188.23;103259;1295;23266;-60
2024/03/17 00:46:18;;;;;;;6.60;1.90;;;;;;;4.19;78.43;101188.61;103562;1317;23950;-61
2024/03/17 00:48:46;;;;;;;;;;;;;;;4.23;78.61;101185.77;103413;1310;22561;-59
2024/03/17 00:51:12;;;;;;;11.20;2.10;;;;;;;4.24;77.93;101181.04;103094;1318;22641;-60
2024/03/17 00:53:37;;;;;;;9.80;2.00;;;;;;;4.26;76.27;101182.43;103212;1318;22587;-63
2024/03/17 00:56:03;;;;;;;10.60;2.20;;;;;;;4.28;75.97;101177.52;103015;1316;22566;-63
2024/03/17 00:58:29;;;;;;;11.50;2.20;;;;;;;4.30;76.18;101180.28;103145;1317;22596;-60
2024/03/17 01:00:54;;;;;;;8.70;2.00;;;;;;;4.32;76.93;101171.79;103184;1318;22670;-62
2024/03/17 01:03:20;;;;;;;11.00;2.50;;;;;;;4.34;75.80;101174.38;103214;1311;22662;-62
2024/03/17 01:05:47;;;;;;;5.00;2.20;;;;;;;4.35;75.39;101172.00;104277;1300;22946;-61
2024/03/17 01:08:17;;;;;;;;;;;;;;;4.37;75.65;101169.15;103098;1310;22556;-60
2024/03/17 01:10:45;;;;;;;5.10;1.80;;;;;;;4.38;73.98;101168.82;103085;1307;23955;-60
2024/03/17 01:13:11;;;;;;;13.60;2.50;;;;;;;4.39;74.16;101163.72;104089;1318;22703;-61
2024/03/17 01:15:38;;;;;;;14.60;2.80;;;;;;;4.41;74.28;101169.23;103260;1300;25546;-61
2024/03/17 01:18:05;;;;;;;16.10;2.90;;;;;;;4.44;73.47;101164.48;103276;1313;26575;-63
2024/03/17 01:20:32;;;;;;;13.60;3.40;;;;;;;4.46;73.90;101162.65;104692;1300;22756;-60
2024/03/17 01:22:57;;;;;;;14.70;2.70;;;;;;;4.44;72.12;101167.57;103501;1316;25451;-60
2024/03/17 01:25:25;;;;;;;15.40;3.10;;;;;;;4.45;72.82;101168.45;103258;1308;26612;-63
2024/03/17 01:27:52;;;;;;;11.10;1.90;;;;;;;4.46;72.87;101169.14;103230;1318;22570;-61
2024/03/17 01:30:19;;;;;;;9.90;1.90;;;;;;;4.47;70.78;101165.39;103109;1303;24301;-61
2024/03/17 01:32:44;;;;;;;;;;;;;;;4.48;72.60;101164.74;103670;1313;22567;-62
2024/03/17 01:35:11;;;;;;;29.70;9.60;;;;;;;4.48;70.44;101164.39;99532;1299;5003258;-61
2024/03/17 01:37:38;;;;;;;11.10;1.80;;;;;;;4.50;70.50;101163.76;103256;1316;22704;-60
2024/03/17 01:40:10;;;;;;;604.00;200.50;;;;;;;4.52;69.64;101161.91;103287;1310;26651;-61
2024/03/17 01:42:38;;;;;;;8.40;1.10;;;;;;;4.55;68.83;101161.95;103305;1318;22845;-60
2024/03/17 01:45:31;;;;;;;12.30;2.30;;;;;;;4.59;70.35;101155.03;104849;1317;26395;-62
2024/03/17 01:47:59;;;;;;;9.30;1.20;;;;;;;4.58;67.86;101155.70;103160;1317;22563;-60
2024/03/17 01:50:28;;;;;;;8.60;1.50;;;;;;;4.59;69.33;101156.06;103111;1316;22575;-61
2024/03/17 01:52:57;;;;;;;12.70;1.80;;;;;;;4.62;70.31;101155.27;103202;1315;22529;-61
2024/03/17 01:55:23;;;;;;;10.30;1.40;;;;;;;4.63;68.08;101152.36;103432;1297;26498;-59
2024/03/17 01:57:52;;;;;;;13.50;1.50;;;;;;;4.64;68.09;101153.08;103311;1316;22597;-60
2024/03/17 02:00:18;;;;;;;15.50;1.40;;;;;;;4.67;69.39;101154.98;103277;1303;22576;-59
2024/03/17 02:02:43;;;;;;;9.30;1.90;;;;;;;4.66;68.49;101152.08;103123;1314;25476;-60
2024/03/17 02:05:10;;;;;;;7.70;1.20;;;;;;;4.65;68.33;101150.70;103173;1295;22807;-60
2024/03/17 02:07:36;;;;;;;4.80;1.10;;;;;;;4.68;70.67;101150.90;104514;1299;22564;-61
2024/03/17 02:10:03;;;;;;;9.70;1.60;;;;;;;4.64;68.84;101149.33;103086;1313;25440;-60
2024/03/17 02:12:31;;;;;;;7.50;1.40;;;;;;;4.64;69.14;101148.63;104077;1316;22660;-60
2024/03/17 02:15:00;;;;;;;11.10;2.40;;;;;;;4.63;68.08;101146.21;103488;1318;22671;-61
2024/03/17 02:17:27;;;;;;;9.50;1.50;;;;;;;4.63;68.79;101149.13;103081;1300;23138;-61
2024/03/17 02:19:52;;;;;;;;;;;;;;;4.64;69.33;101150.34;103153;1317;22812;-61
2024/03/17 02:22:18;;;;;;;103.40;29.10;;;;;;;4.64;69.78;101152.90;103219;1310;22686;-60
2024/03/17 02:24:44;;;;;;;33.50;11.60;;;;;;;4.61;68.85;101156.44;103125;1318;22758;-60
2024/03/17 02:27:11;;;;;;;8.90;2.50;;;;;;;4.59;69.37;101147.17;103494;1300;22560;-60
2024/03/17 02:29:36;;;;;;;12.10;2.10;;;;;;;4.59;69.64;101147.36;103113;1304;25736;-60
2024/03/17 02:32:06;;;;;;;13.80;2.50;;;;;;;4.56;68.39;101145.25;103144;1317;23655;-60
2024/03/17 02:34:36;;;;;;;122.50;51.40;;;;;;;4.56;68.79;101143.70;103091;1310;22583;-61
2024/03/17 02:37:04;;;;;;;11.00;2.30;;;;;;;4.52;68.59;101148.77;103727;1300;25542;-59
2024/03/17 02:39:33;;;;;;;10.20;1.50;;;;;;;4.52;68.94;101151.33;103626;1318;22690;-62
2024/03/17 02:42:00;;;;;;;14.10;1.80;;;;;;;4.51;69.42;101148.76;103252;1318;23594;-60
2024/03/17 02:44:26;;;;;;;11.10;2.90;;;;;;;4.50;69.42;101152.48;103273;1314;22570;-61
2024/03/17 02:46:52;;;;;;;11.20;2.50;;;;;;;4.49;69.22;101153.66;103018;1299;22574;-60
2024/03/17 02:49:18;;;;;;;9.40;1.80;;;;;;;4.49;69.61;101151.42;103294;1318;24309;-59
2024/03/17 02:51:44;;;;;;;11.50;2.30;;;;;;;4.48;70.18;101149.55;103235;1316;23152;-60
2024/03/17 02:54:09;;;;;;;7.20;2.00;;;;;;;4.46;69.94;101148.82;103048;1314;22572;-60
2024/03/17 02:56:35;;;;;;;16.70;4.00;;;;;;;4.45;70.22;101145.23;103073;1297;207243;-61
2024/03/17 02:59:00;;;;;;;11.70;2.20;;;;;;;4.44;69.86;101146.39;102971;1309;23486;-60
2024/03/17 03:01:26;;;;;;;12.80;2.90;;;;;;;4.42;70.34;101146.88;103471;1318;22690;-61
2024/03/17 03:03:52;;;;;;;10.80;2.00;;;;;;;4.41;69.99;101144.98;104703;1313;24699;-61
2024/03/17 03:06:19;;;;;;;14.90;2.60;;;;;;;4.41;70.20;101147.55;104872;1312;22999;-62
2024/03/17 03:08:48;;;;;;;21.50;6.70;;;;;;;4.42;70.28;101140.05;105421;1299;23036;-61
2024/03/17 03:11:16;;;;;;;12.50;2.00;;;;;;;4.43;70.64;101131.87;104884;1318;22682;-61
2024/03/17 03:13:42;;;;;;;8.90;1.80;;;;;;;4.39;70.72;101138.81;103623;1318;24305;-61
2024/03/17 03:16:09;;;;;;;;;;;;;;;4.39;70.97;101144.61;103512;1318;22567;-60
2024/03/17 03:18:35;;;;;;;10.50;2.00;;;;;;;4.39;71.15;101144.94;103059;1300;22700;-60
2024/03/17 03:21:01;;;;;;;13.30;2.50;;;;;;;4.36;70.89;101145.74;103493;1318;22620;-60
2024/03/17 03:23:29;;;;;;;13.80;3.30;;;;;;;4.36;71.09;101144.20;103091;1313;22711;-61
2024/03/17 03:25:56;;;;;;;8.70;2.50;;;;;;;4.34;71.21;101147.76;103017;1313;22732;-61
2024/03/17 03:28:23;;;;;;;12.10;2.00;;;;;;;4.33;70.97;101142.79;103778;1300;22689;-60
2024/03/17 03:30:48;;;;;;;10.40;3.10;;;;;;;4.33;71.14;101147.74;103668;1314;23398;-62
2024/03/17 03:33:14;;;;;;;44.00;4.80;;;;;;;4.32;71.31;101148.23;103071;1318;22781;-61
2024/03/17 03:35:39;;;;;;;14.20;1.80;;;;;;;4.31;71.37;101150.10;102923;1313;24256;-60
2024/03/17 03:38:05;;;;;;;6.60;1.70;;;;;;;4.31;71.27;101150.45;102892;1300;22782;-60
2024/03/17 03:40:32;;;;;;;11.20;3.60;;;;;;;4.30;71.37;101150.77;103124;1318;23338;-60
2024/03/17 03:42:58;;;;;;;;;;;;;;;4.29;71.61;101146.14;102960;1310;23175;-60
2024/03/17 03:45:23;;;;;;;10.60;2.10;;;;;;;4.28;71.59;101147.83;102977;1312;24240;-62
2024/03/17 03:47:50;;;;;;;8.90;1.80;;;;;;;4.27;71.54;101146.60;103088;1300;22569;-61
2024/03/17 03:50:20;;;;;;;14.10;2.00;;;;;;;4.27;71.68;101147.98;103101;1313;24151;-60
2024/03/17 03:52:46;;;;;;;10.80;1.40;;;;;;;4.28;71.65;101151.58;103642;1313;23771;-60
2024/03/17 03:55:15;;;;;;;13.10;2.20;;;;;;;4.28;71.46;101145.44;103125;1313;22822;-59
2024/03/17 03:57:42;;;;;;;25.60;6.60;;;;;;;4.29;71.65;101146.65;102963;1297;22594;-60
2024/03/17 04:00:21;;;;;;;13.30;2.20;;;;;;;4.29;71.74;101142.55;103685;1318;22689;-61
2024/03/17 04:02:52;;;;;;;13.00;2.40;;;;;;;4.29;71.92;101149.89;103200;1318;22874;-62
2024/03/17 04:05:18;;;;;;;11.80;2.20;;;;;;;4.28;71.66;101151.92;103234;1313;22637;-61
2024/03/17 04:07:48;;;;;;;8.40;1.60;;;;;;;4.29;71.64;101152.79;102931;1301;22607;-60
2024/03/17 04:10:14;;;;;;;12.90;1.70;;;;;;;4.28;71.84;101151.75;103217;1318;22598;-60
2024/03/17 04:12:40;;;;;;;530.60;166.90;;;;;;;4.29;71.89;101153.13;103163;1318;22667;-60
2024/03/17 04:15:06;;;;;;;14.80;2.60;;;;;;;4.28;71.82;101154.99;103139;1318;24370;-60
2024/03/17 04:17:33;;;;;;;13.70;2.00;;;;;;;4.28;71.93;101153.96;103222;1317;23356;-60
2024/03/17 04:19:59;;;;;;;14.90;2.00;;;;;;;4.28;71.99;101154.64;102987;1300;24244;-61
2024/03/17 04:22:24;;;;;;;8.70;1.90;;;;;;;4.26;72.07;101154.79;104386;1312;23280;-62
2024/03/17 04:24:56;;;;;;;5.20;1.30;;;;;;;4.25;72.08;101154.77;102899;1318;26755;-62
2024/03/17 04:27:24;;;;;;;11.90;2.10;;;;;;;4.26;72.08;101156.32;103020;1313;22680;-60
2024/03/17 04:29:51;;;;;;;11.80;2.10;;;;;;;4.26;72.04;101152.57;103001;1318;22608;-61
2024/03/17 04:32:17;;;;;;;9.40;1.70;;;;;;;4.26;72.14;101151.89;103053;1312;22917;-61
2024/03/17 04:34:43;;;;;;;18.30;1.80;;;;;;;4.27;72.25;101156.34;103099;1317;22780;-61
2024/03/17 04:37:11;;;;;;;19.00;8.10;;;;;;;4.27;71.99;101155.14;103129;1318;24301;-60
2024/03/17 04:39:38;;;;;;;11.20;2.40;;;;;;;4.28;72.14;101149.02;104695;1299;22668;-61
2024/03/17 04:42:04;;;;;;;;;;;;;;;4.29;72.19;101152.63;103260;1316;22678;-61
2024/03/17 04:44:29;;;;;;;15.10;2.40;;;;;;;4.29;72.35;101156.02;102884;1316;22547;-62
2024/03/17 04:46:55;;;;;;;9.70;1.90;;;;;;;4.30;72.25;101157.41;102939;1313;25310;-62
2024/03/17 04:49:21;;;;;;;11.00;1.90;;;;;;;4.29;72.03;101159.27;103063;1297;27761;-62
2024/03/17 04:51:46;;;;;;;24.30;2.00;;;;;;;4.28;72.30;101163.17;103100;1313;22774;-61
2024/03/17 04:54:12;;;;;;;11.00;2.00;;;;;;;4.28;72.18;101166.77;103032;1318;22610;-60
2024/03/17 04:56:38;;;;;;;9.40;2.00;;;;;;;4.28;72.45;101169.50;102992;1301;22784;-62
2024/03/17 04:59:05;;;;;;;506.00;231.30;;;;;;;4.28;72.54;101176.14;103024;1297;22688;-61
2024/03/17 05:01:35;;;;;;;10.00;2.50;;;;;;;4.27;72.34;101173.56;103087;1318;22689;-62
2024/03/17 05:04:03;;;;;;;8.50;2.10;;;;;;;4.26;72.42;101179.52;103708;1313;22619;-61
2024/03/17 05:06:29;;;;;;;6.60;1.50;;;;;;;4.25;72.40;101177.11;102940;1318;22579;-61
2024/03/17 05:08:54;;;;;;;8.20;1.80;;;;;;;4.22;72.77;101182.70;103073;1297;22830;-62
2024/03/17 05:11:20;;;;;;;5.10;1.60;;;;;;;4.20;72.81;101181.29;102950;1318;22823;-61
2024/03/17 05:13:45;;;;;;;7.10;1.80;;;;;;;4.19;73.07;101181.61;103102;1317;22564;-61
2024/03/17 05:16:11;;;;;;;8.50;2.00;;;;;;;4.18;73.08;101180.74;103192;1314;22697;-60
2024/03/17 05:18:39;;;;;;;10.50;1.60;;;;;;;4.20;72.99;101184.86;102962;1318;23746;-60
2024/03/17 05:21:06;;;;;;;12.40;2.80;;;;;;;4.22;72.95;101187.13;103882;1300;22963;-62
2024/03/17 05:23:34;;;;;;;11.30;1.90;;;;;;;4.24;73.07;101197.23;104512;1295;22617;-61
2024/03/17 05:26:00;;;;;;;11.60;1.60;;;;;;;4.25;73.04;101201.86;102917;1318;22808;-61
2024/03/17 05:28:28;;;;;;;5.20;1.40;;;;;;;4.27;73.17;101207.36;103018;1312;22573;-60
2024/03/17 05:30:54;;;;;;;13.40;2.20;;;;;;;4.29;73.03;101209.63;103141;1318;25539;-62
2024/03/17 05:33:22;;;;;;;9.50;1.90;;;;;;;4.33;72.91;101216.35;104293;1314;22581;-61
2024/03/17 05:35:52;;;;;;;8.00;1.90;;;;;;;4.34;72.97;101220.98;104031;1318;22695;-61
2024/03/17 05:38:22;;;;;;;13.10;2.00;;;;;;;4.36;73.12;101225.45;103051;1303;22567;-61
2024/03/17 05:40:59;;;;;;;9.50;1.60;;;;;;;4.38;73.06;101228.73;102975;1300;22837;-61
2024/03/17 05:43:26;;;;;;;7.60;1.20;;;;;;;4.39;73.48;101237.98;103197;1318;23050;-61
2024/03/17 05:45:52;;;;;;;;;;;;;;;4.37;74.42;101242.52;102999;1318;24538;-60
2024/03/17 05:48:18;;;;;;;10.50;2.00;;;;;;;4.35;74.06;101247.79;103003;1313;24262;-60
2024/03/17 05:50:44;;;;;;;12.20;1.80;;;;;;;4.32;75.56;101250.11;103072;1297;22842;-59
2024/03/17 05:53:10;;;;;;;9.50;2.40;;;;;;;4.25;75.42;101259.04;103187;1313;22632;-61
2024/03/17 05:55:36;;;;;;;11.80;1.70;;;;;;;4.25;74.67;101267.39;103045;1311;24413;-60
2024/03/17 05:58:02;;;;;;;5.80;1.60;;;;;;;4.25;75.32;101267.40;103119;1313;22751;-61
2024/03/17 06:00:28;;;;;;;4.20;1.30;;;;;;;4.21;76.10;101275.67;103448;1300;27450;-62
2024/03/17 06:02:53;;;;;;;8.70;1.60;;;;;;;4.16;75.38;101279.67;103041;1318;22583;-60
2024/03/17 06:05:19;;;;;;;6.10;1.30;;;;;;;4.15;74.97;101284.44;102957;1318;24007;-60
2024/03/17 06:07:46;;;;;;;6.10;1.30;;;;;;;4.12;76.61;101288.65;103175;1318;25208;-60
2024/03/17 06:10:12;;;;;;;7.70;1.90;;;;;;;4.03;78.51;101286.76;103516;1304;22755;-62
2024/03/17 06:12:38;;;;;;;3.30;1.10;;;;;;;3.93;76.87;101288.41;102749;1320;25272;-61
2024/03/17 06:15:04;;;;;;;6.70;1.40;;;;;;;3.83;79.00;101288.52;102897;1313;25449;-61
2024/03/17 06:17:30;;;;;;;6.10;1.60;;;;;;;3.77;78.01;101294.36;103111;1313;22775;-60
2024/03/17 06:19:57;;;;;;;10.50;1.50;;;;;;;3.78;76.57;101298.98;102969;1306;22715;-61
2024/03/17 06:22:24;;;;;;;4.90;1.60;;;;;;;3.79;77.53;101298.50;102977;1304;22589;-60
2024/03/17 06:24:50;;;;;;;7.10;1.30;;;;;;;3.78;78.45;101295.41;103495;1316;22625;-61
2024/03/17 06:27:16;;;;;;;4.50;1.30;;;;;;;3.81;78.02;101301.96;103188;1318;24305;-62
2024/03/17 06:29:45;;;;;;;6.10;1.20;;;;;;;3.87;76.83;101303.64;103212;1318;24223;-59
2024/03/17 06:32:12;;;;;;;4.60;1.70;;;;;;;3.92;77.76;101315.86;103219;1300;22615;-62
2024/03/17 06:34:37;;;;;;;3.70;1.10;;;;;;;3.90;79.05;101318.02;104838;1318;22570;-62
2024/03/17 06:37:03;;;;;;;6.80;1.20;;;;;;;3.85;79.17;101322.34;103058;1316;25463;-61
2024/03/17 06:39:29;;;;;;;8.50;1.10;;;;;;;3.85;77.82;101323.36;103144;1318;22609;-62
2024/03/17 06:41:54;;;;;;;3.70;1.10;;;;;;;3.91;77.37;101319.77;103014;1302;22592;-62
2024/03/17 06:44:24;;;;;;;2.50;1.00;;;;;;;3.97;78.65;101317.67;103229;1313;22555;-62
2024/03/17 06:46:49;;;;;;;5.10;0.90;;;;;;;4.03;78.32;101320.00;104079;1309;22593;-60
2024/03/17 06:49:15;;;;;;;5.30;2.20;;;;;;;4.06;78.51;101322.48;103128;1318;22728;-59
2024/03/17 06:51:40;;;;;;;2.90;1.00;;;;;;;4.13;77.75;101322.45;103182;1311;22595;-59
2024/03/17 06:54:08;;;;;;;2.50;1.00;;;;;;;4.18;77.89;101321.50;102930;1313;22697;-62
2024/03/17 06:56:35;;;;;;;4.00;1.40;;;;;;;4.19;77.64;101324.77;103455;1311;22729;-61
2024/03/17 06:59:00;;;;;;;;;;;;;;;4.27;77.43;101325.11;103089;1316;25261;-62
2024/03/17 07:01:26;;;;;;;4.10;1.10;;;;;;;4.29;77.46;101328.05;103015;1297;25123;-61
2024/03/17 07:03:52;;;;;;;7.60;1.40;;;;;;;4.30;77.19;101330.64;103023;1308;22557;-60
2024/03/17 07:06:17;;;;;;;3.60;0.80;;;;;;;4.36;77.13;101332.46;102993;1318;22871;-61
2024/03/17 07:08:43;;;;;;;3.30;1.30;;;;;;;4.40;77.07;101338.02;103180;1297;22713;-60
2024/03/17 07:11:08;;;;;;;5.50;1.20;;;;;;;4.48;76.78;101340.23;103075;1312;25379;-60
2024/03/17 07:13:39;;;;;;;2.40;1.00;;;;;;;4.52;76.17;101342.70;103044;1318;22573;-61
2024/03/17 07:16:06;;;;;;;8.50;1.40;;;;;;;4.47;75.83;101343.29;103229;1313;22581;-60
2024/03/17 07:18:32;;;;;;;;;;;;;;;4.50;76.14;101345.05;102646;1297;504383;-60
2024/03/17 07:21:05;;;;;;;5.00;1.10;;;;;;;4.57;75.78;101342.64;103118;1312;23938;-61
2024/03/17 07:23:31;;;;;;;3.80;0.80;;;;;;;4.60;75.72;101342.70;104500;1300;23653;-61
2024/03/17 07:26:00;;;;;;;7.30;1.00;;;;;;;4.72;75.62;101341.38;103261;1318;26625;-60
2024/03/17 07:28:26;;;;;;;1.60;0.70;;;;;;;4.72;74.47;101342.89;103134;1317;23967;-60
2024/03/17 07:30:54;;;;;;;2.10;0.80;;;;;;;4.83;74.71;101338.84;102991;1315;22729;-61
2024/03/17 07:33:20;;;;;;;1.60;0.70;;;;;;;4.95;74.50;101341.46;102973;1299;25330;-61
2024/03/17 07:35:50;;;;;;;3.60;1.20;;;;;;;5.19;74.50;101345.31;103050;1316;23071;-61
2024/03/17 07:38:16;;;;;;;3.90;0.80;;;;;;;5.32;72.16;101343.83;102983;1316;22635;-60
2024/03/17 07:40:43;;;;;;;4.60;0.70;;;;;;;5.35;73.33;101349.17;103088;1316;24282;-61
2024/03/17 07:43:09;;;;;;;4.20;0.70;;;;;;;5.53;72.81;101352.20;103830;1300;22567;-61
2024/03/17 07:45:34;;;;;;;2.80;0.60;;;;;;;5.59;71.91;101354.52;103131;1316;23604;-61
2024/03/17 07:48:00;;;;;;;6.40;0.90;;;;;;;5.65;72.33;101357.70;103103;1318;23065;-59
2024/03/17 07:50:25;;;;;;;1.50;0.70;;;;;;;5.74;71.85;101361.95;103110;1318;25387;-61
2024/03/17 07:52:51;;;;;;;3.80;0.90;;;;;;;5.88;72.42;101359.94;103076;1311;22563;-61
2024/03/17 07:55:16;;;;;;;1.80;0.60;;;;;;;5.96;72.38;101361.95;103071;1318;22795;-62
2024/03/17 07:57:42;;;;;;;3.30;0.80;;;;;;;5.92;72.05;101364.30;103036;1318;25411;-61
2024/03/17 08:00:15;;;;;;;3.70;1.00;;;;;;;5.90;70.37;101369.04;102988;1318;25694;-60
2024/03/17 08:02:47;;;;;;;1.50;0.60;;;;;;;5.94;70.22;101375.27;103283;1300;22707;-61
2024/03/17 08:05:13;;;;;;;3.70;0.80;;;;;;;5.99;68.88;101376.35;103103;1316;25400;-60
2024/03/17 08:07:42;;;;;;;2.40;0.80;;;;;;;5.90;70.48;101378.80;103127;1318;25667;-61
2024/03/17 08:10:08;;;;;;;4.50;0.70;;;;;;;5.88;69.85;101375.67;103700;1318;22566;-60
2024/03/17 08:12:33;;;;;;;7.50;0.90;;;;;;;6.07;70.86;101380.77;103200;1318;22557;-61
2024/03/17 08:14:59;;;;;;;3.30;0.70;;;;;;;6.06;68.50;101379.05;103074;1313;26724;-61
2024/03/17 08:17:25;;;;;;;4.80;0.90;;;;;;;5.87;68.45;101383.17;102975;1312;23908;-61
2024/03/17 08:19:51;;;;;;;1.00;0.50;;;;;;;5.86;70.03;101386.40;103150;1310;22563;-61
2024/03/17 08:22:17;;;;;;;4.30;0.70;;;;;;;5.74;68.52;101391.18;103022;1314;22583;-62
2024/03/17 08:24:43;;;;;;;1.60;0.80;;;;;;;5.74;70.38;101388.95;102960;1311;23989;-62
2024/03/17 08:27:09;;;;;;;2.30;0.80;;;;;;;5.77;70.04;101391.91;103098;1312;22938;-60
2024/03/17 08:29:35;;;;;;;2.30;0.50;;;;;;;5.86;70.53;101390.86;103194;1318;24158;-61
2024/03/17 08:32:00;;;;;;;4.70;0.80;;;;;;;5.96;70.93;101388.82;102854;1319;208857;-62
2024/03/17 08:34:26;;;;;;;2.50;0.90;;;;;;;6.02;70.33;101392.00;103145;1300;22586;-61
2024/03/17 08:36:51;;;;;;;4.20;0.50;;;;;;;6.17;70.23;101394.95;103014;1318;22623;-61
2024/03/17 08:39:17;;;;;;;1.30;0.60;;;;;;;6.23;69.49;101391.79;103037;1317;23011;-62
2024/03/17 08:41:44;;;;;;;3.50;0.70;;;;;;;6.20;67.69;101394.30;103176;1317;22587;-61
2024/03/17 08:44:09;;;;;;;;;;;;;;;6.30;67.37;101392.55;103170;1317;24415;-62
2024/03/17 08:46:35;;;;;;;3.20;0.80;;;;;;;6.72;66.37;101387.95;103268;1317;24555;-62
2024/03/17 08:49:00;;;;;;;1.20;0.50;;;;;;;6.95;64.86;101389.92;103854;1310;25380;-63
2024/03/17 08:51:27;;;;;;;2.70;0.50;;;;;;;6.83;65.35;101389.60;103381;1312;25278;-61
2024/03/17 08:53:54;;;;;;;1.60;0.80;;;;;;;6.73;65.35;101389.35;103701;1311;22581;-58
2024/03/17 08:56:20;;;;;;;12.70;5.50;;;;;;;6.85;65.45;101391.00;103312;1317;27506;-61
2024/03/17 08:58:48;;;;;;;4.90;2.00;;;;;;;7.64;62.31;101386.63;103586;1317;22675;-59
2024/03/17 09:01:16;;;;;;;2.20;0.30;;;;;;;7.74;62.27;101383.28;103940;1315;22928;-61
2024/03/17 09:03:42;;;;;;;0.30;0.20;;;;;;;7.60;60.74;101387.80;103622;1295;22719;-61
2024/03/17 09:06:16;;;;;;;1.90;0.90;;;;;;;7.42;61.67;101391.06;103951;1310;22840;-60
2024/03/17 09:08:41;;;;;;;2.80;2.20;;;;;;;6.92;60.32;101392.63;104374;1317;22578;-59
2024/03/17 09:11:12;;;;;;;2.40;0.40;;;;;;;6.46;62.91;101393.61;103719;1317;22588;-62
2024/03/17 09:13:38;;;;;;;2.40;0.60;;;;;;;6.42;62.75;101400.58;103182;1310;25531;-63
2024/03/17 09:16:04;;;;;;;1.90;0.50;;;;;;;6.33;64.68;101400.13;103271;1301;22574;-60
2024/03/17 09:18:31;;;;;;;1.80;0.30;;;;;;;6.39;64.07;101400.70;103304;1317;22588;-64
2024/03/17 09:21:05;;;;;;;0.80;0.40;;;;;;;6.26;63.40;101404.30;103217;1316;23951;-62
2024/03/17 09:23:34;;;;;;;0.80;0.40;;;;;;;6.37;64.29;101402.41;103861;1303;23833;-61
2024/03/17 09:26:09;;;;;;;19.50;5.10;;;;;;;6.50;63.69;101405.48;103406;1308;25283;-60
2024/03/17 09:28:36;;;;;;;4.40;2.70;;;;;;;6.26;62.45;101399.69;104342;1301;22788;-60
2024/03/17 09:31:06;;;;;;;2.30;1.00;;;;;;;6.12;62.81;101404.64;99651;1296;5003571;-59
2024/03/17 09:33:35;;;;;;;1.50;0.40;;;;;;;6.49;63.31;101405.65;103866;1317;25441;-58
2024/03/17 09:36:08;;;;;;;1.90;0.50;;;;;;;6.82;62.95;101404.15;104699;1300;22568;-58
2024/03/17 09:38:35;;;;;;;1.50;0.50;;;;;;;6.83;63.96;101411.02;103897;1318;22586;-61
2024/03/17 09:41:01;;;;;;;0.50;0.50;;;;;;;6.61;62.00;101408.88;104931;1318;23526;-59
2024/03/17 09:43:29;;;;;;;1.60;0.50;;;;;;;6.42;63.87;101414.98;104487;1317;22571;-62
2024/03/17 09:45:57;;;;;;;2.20;0.40;;;;;;;6.34;64.23;101418.98;104076;1308;22563;-62
2024/03/17 09:48:29;;;;;;;1.50;0.50;;;;;;;6.13;63.41;101419.55;104045;1315;22580;-62
2024/03/17 09:51:00;;;;;;;1.50;0.60;;;;;;;6.09;63.28;101419.65;103341;1311;22826;-60
2024/03/17 09:53:28;;;;;;;1.40;0.60;;;;;;;5.87;63.26;101417.57;104136;1305;23839;-60
2024/03/17 09:56:18;;;;;;;3.10;1.00;;;;;;;5.87;64.33;101422.02;103724;1308;24290;-62
2024/03/17 09:58:45;;;;;;;3.00;2.20;;;;;;;5.86;64.14;101425.93;104024;1318;22568;-61
2024/03/17 10:01:11;;;;;;;2.30;0.50;;;;;;;5.83;63.11;101424.85;104152;1303;25434;-58
2024/03/17 10:03:42;;;;;;;1.40;0.50;;;;;;;5.75;63.69;101419.41;104251;1314;22567;-60
2024/03/17 10:06:12;;;;;;;2.90;0.70;;;;;;;5.81;63.52;101421.06;103450;1301;22684;-62
2024/03/17 10:08:53;;;;;;;0.80;0.40;;;;;;;5.90;63.96;101418.48;103303;1318;26577;-62
2024/03/17 10:11:21;;;;;;;5.00;0.70;;;;;;;6.09;63.91;101419.48;104183;1302;22904;-60
2024/03/17 10:13:58;;;;;;;2.80;0.60;;;;;;;6.10;63.49;101425.31;103173;1310;22760;-59
2024/03/17 10:16:26;;;;;;;0.90;0.40;;;;;;;5.95;61.46;101423.89;103450;1298;22603;-64
2024/03/17 10:19:11;;;;;;;1.70;0.60;;;;;;;5.91;63.28;101423.49;103414;1294;22822;-60
2024/03/17 10:21:43;;;;;;;1.20;0.40;;;;;;;5.89;62.79;101430.61;104598;1311;22651;-61
2024/03/17 10:24:11;;;;;;;0.90;0.50;;;;;;;5.84;63.30;101438.73;103979;1310;22625;-61
2024/03/17 10:27:02;;;;;;;2.30;0.60;;;;;;;5.85;64.34;101440.29;104229;1310;26543;-60
2024/03/17 10:29:31;;;;;;;1.80;0.50;;;;;;;5.86;64.71;101446.64;104530;1311;22957;-61
2024/03/17 10:31:57;;;;;;;10.70;2.10;;;;;;;5.84;65.07;101448.98;104554;1310;22586;-59
2024/03/17 10:34:25;;;;;;;0.70;0.40;;;;;;;5.84;65.04;101449.68;103623;1317;22710;-58
2024/03/17 10:37:14;;;;;;;0.90;0.60;;;;;;;5.81;65.27;101450.31;103686;1298;23096;-62
2024/03/17 10:39:41;;;;;;;1.40;0.40;;;;;;;5.61;64.82;101460.92;103276;1310;25598;-60
2024/03/17 10:42:09;;;;;;;1.10;0.50;;;;;;;5.60;65.80;101456.81;104441;1317;25681;-61
2024/03/17 10:44:37;;;;;;;1.40;1.00;;;;;;;5.95;65.39;101454.69;103170;1303;24264;-61
2024/03/17 10:47:09;;;;;;;1.30;0.60;;;;;;;6.20;64.93;101452.53;103163;1305;22658;-60
2024/03/17 10:49:37;;;;;;;1.50;0.70;;;;;;;6.57;64.98;101449.25;103860;1318;22700;-62
2024/03/17 10:52:08;;;;;;;0.90;0.60;;;;;;;7.12;64.62;101450.63;103143;1310;22689;-60
2024/03/17 10:54:34;;;;;;;1.10;0.50;;;;;;;7.15;62.60;101456.67;104574;1311;22531;-60
2024/03/17 10:57:19;;;;;;;1.30;0.50;;;;;;;6.99;62.29;101460.92;103139;1316;24287;-62
2024/03/17 10:59:48;;;;;;;0.50;0.30;;;;;;;6.71;62.30;101459.20;103205;1310;22568;-61
2024/03/17 11:02:24;;;;;;;0.40;0.30;;;;;;;6.66;63.43;101461.20;103184;1304;22571;-62
2024/03/17 11:04:58;;;;;;;0.40;0.30;;;;;;;7.04;63.32;101464.91;104561;1317;23314;-58
2024/03/17 11:07:26;;;;;;;0.90;0.40;;;;;;;9.34;60.36;101456.33;103206;1300;22587;-60
2024/03/17 11:09:55;;;;;;;2.20;0.80;;;;;;;10.00;54.77;101449.06;103039;1318;22566;-58
2024/03/17 11:12:39;;;;;;;0.40;0.20;;;;;;;9.01;56.20;101457.52;103064;1318;23833;-59
2024/03/17 11:15:25;;;;;;;0.40;0.30;;;;;;;8.37;59.79;101457.21;103070;1311;24257;-60
2024/03/17 11:17:53;;;;;;;0.60;0.20;;;;;;;8.05;60.58;101460.41;103086;1300;22676;-60
2024/03/17 11:20:28;;;;;;;1.10;0.70;;;;;;;7.79;61.22;101476.34;103235;1311;23519;-60
2024/03/17 11:23:01;;;;;;;0.70;0.30;;;;;;;7.45;61.67;101487.15;104584;1317;22683;-61
2024/03/17 11:25:26;;;;;;;2.70;0.40;;;;;;;7.06;62.00;101487.24;103364;1313;22591;-60
2024/03/17 11:27:58;;;;;;;0.80;0.30;;;;;;;6.70;62.54;101491.41;103211;1311;22569;-59